sensor_id;sensor_type;location;lat;lon;timestamp;P1;durP1;ratioP1;P2;durP2;ratioP2
60919;SDS011;59039;52.108;19.942;2023-09-30T00:01:41;30.00;;;15.00;;
60919;SDS011;59039;52.108;19.942;2023-09-30T00:04:07;29.60;;;15.20;;
60919;SDS011;59039;52.108;19.942;2023-09-30T00:06:32;28.90;;;14.60;;
60919;SDS011;59039;52.108;19.942;2023-09-30T00:08:57;28.90;;;16.00;;
60919;SDS011;59039;52.108;19.942;2023-09-30T00:11:23;25.10;;;14.20;;
60919;SDS011;59039;52.108;19.942;2023-09-30T00:13:48;31.80;;;15.30;;
60919;SDS011;59039;52.108;19.942;2023-09-30T00:16:13;33.00;;;14.80;;
60919;SDS011;59039;52.108;19.942;2023-09-30T00:18:38;27.30;;;14.20;;
60919;SDS011;59039;52.108;19.942;2023-09-30T00:21:03;24.90;;;14.50;;
60919;SDS011;59039;52.108;19.942;2023-09-30T00:23:29;33.40;;;15.30;;
60919;SDS011;59039;52.108;19.942;2023-09-30T00:25:54;28.10;;;14.40;;
60919;SDS011;59039;52.108;19.942;2023-09-30T00:28:19;28.70;;;14.20;;
60919;SDS011;59039;52.108;19.942;2023-09-30T00:30:44;33.60;;;15.70;;
60919;SDS011;59039;52.108;19.942;2023-09-30T00:33:09;25.50;;;15.10;;
60919;SDS011;59039;52.108;19.942;2023-09-30T00:35:35;28.10;;;13.50;;
60919;SDS011;59039;52.108;19.942;2023-09-30T00:38:00;30.40;;;14.50;;
60919;SDS011;59039;52.108;19.942;2023-09-30T00:40:25;27.80;;;14.30;;
60919;SDS011;59039;52.108;19.942;2023-09-30T00:42:50;28.20;;;15.30;;
60919;SDS011;59039;52.108;19.942;2023-09-30T00:45:15;28.10;;;14.60;;
60919;SDS011;59039;52.108;19.942;2023-09-30T00:47:41;28.90;;;13.60;;
60919;SDS011;59039;52.108;19.942;2023-09-30T00:50:06;26.70;;;14.60;;
60919;SDS011;59039;52.108;19.942;2023-09-30T00:52:32;30.40;;;14.60;;
60919;SDS011;59039;52.108;19.942;2023-09-30T00:54:58;25.50;;;14.80;;
60919;SDS011;59039;52.108;19.942;2023-09-30T00:57:23;33.50;;;15.70;;
60919;SDS011;59039;52.108;19.942;2023-09-30T00:59:49;32.80;;;14.40;;
60919;SDS011;59039;52.108;19.942;2023-09-30T01:02:15;27.20;;;14.60;;
60919;SDS011;59039;52.108;19.942;2023-09-30T01:04:42;27.30;;;15.30;;
60919;SDS011;59039;52.108;19.942;2023-09-30T01:07:07;26.20;;;15.00;;
60919;SDS011;59039;52.108;19.942;2023-09-30T01:09:32;26.70;;;14.40;;
60919;SDS011;59039;52.108;19.942;2023-09-30T01:11:58;25.40;;;13.60;;
60919;SDS011;59039;52.108;19.942;2023-09-30T01:14:33;32.10;;;14.20;;
60919;SDS011;59039;52.108;19.942;2023-09-30T01:16:58;28.40;;;14.80;;
60919;SDS011;59039;52.108;19.942;2023-09-30T01:19:27;31.00;;;15.00;;
60919;SDS011;59039;52.108;19.942;2023-09-30T01:21:56;23.70;;;14.90;;
60919;SDS011;59039;52.108;19.942;2023-09-30T01:24:22;24.10;;;14.40;;
60919;SDS011;59039;52.108;19.942;2023-09-30T01:26:47;25.40;;;14.40;;
60919;SDS011;59039;52.108;19.942;2023-09-30T01:29:12;24.80;;;15.00;;
60919;SDS011;59039;52.108;19.942;2023-09-30T01:31:38;24.60;;;15.50;;
60919;SDS011;59039;52.108;19.942;2023-09-30T01:34:03;27.20;;;14.50;;
60919;SDS011;59039;52.108;19.942;2023-09-30T01:36:29;26.10;;;14.30;;
60919;SDS011;59039;52.108;19.942;2023-09-30T01:38:54;28.40;;;15.40;;
60919;SDS011;59039;52.108;19.942;2023-09-30T01:41:20;26.40;;;15.00;;
60919;SDS011;59039;52.108;19.942;2023-09-30T01:43:45;30.20;;;14.70;;
60919;SDS011;59039;52.108;19.942;2023-09-30T01:46:10;23.30;;;14.00;;
60919;SDS011;59039;52.108;19.942;2023-09-30T01:48:35;23.10;;;14.80;;
60919;SDS011;59039;52.108;19.942;2023-09-30T01:51:00;26.40;;;15.80;;
60919;SDS011;59039;52.108;19.942;2023-09-30T01:53:26;31.10;;;15.60;;
60919;SDS011;59039;52.108;19.942;2023-09-30T01:55:51;34.20;;;14.90;;
60919;SDS011;59039;52.108;19.942;2023-09-30T01:58:16;28.60;;;14.70;;
60919;SDS011;59039;52.108;19.942;2023-09-30T02:00:41;32.70;;;16.40;;
60919;SDS011;59039;52.108;19.942;2023-09-30T02:03:07;30.50;;;15.00;;
60919;SDS011;59039;52.108;19.942;2023-09-30T02:05:32;26.90;;;14.80;;
60919;SDS011;59039;52.108;19.942;2023-09-30T02:07:57;28.90;;;14.90;;
60919;SDS011;59039;52.108;19.942;2023-09-30T02:10:22;26.90;;;16.30;;
60919;SDS011;59039;52.108;19.942;2023-09-30T02:12:48;28.60;;;15.90;;
60919;SDS011;59039;52.108;19.942;2023-09-30T02:15:13;28.40;;;16.00;;
60919;SDS011;59039;52.108;19.942;2023-09-30T02:17:39;23.10;;;14.90;;
60919;SDS011;59039;52.108;19.942;2023-09-30T02:20:05;26.90;;;15.80;;
60919;SDS011;59039;52.108;19.942;2023-09-30T02:22:31;31.90;;;17.90;;
60919;SDS011;59039;52.108;19.942;2023-09-30T02:24:56;30.90;;;14.80;;
60919;SDS011;59039;52.108;19.942;2023-09-30T02:27:21;29.30;;;15.60;;
60919;SDS011;59039;52.108;19.942;2023-09-30T02:29:46;24.20;;;15.00;;
60919;SDS011;59039;52.108;19.942;2023-09-30T02:32:11;26.30;;;15.10;;
60919;SDS011;59039;52.108;19.942;2023-09-30T02:34:37;28.90;;;15.60;;
60919;SDS011;59039;52.108;19.942;2023-09-30T02:37:02;24.70;;;14.90;;
60919;SDS011;59039;52.108;19.942;2023-09-30T02:39:27;29.10;;;15.70;;
60919;SDS011;59039;52.108;19.942;2023-09-30T02:41:52;29.20;;;15.70;;
60919;SDS011;59039;52.108;19.942;2023-09-30T02:44:17;25.30;;;15.30;;
60919;SDS011;59039;52.108;19.942;2023-09-30T02:46:43;21.70;;;14.50;;
60919;SDS011;59039;52.108;19.942;2023-09-30T02:49:08;33.80;;;16.70;;
60919;SDS011;59039;52.108;19.942;2023-09-30T02:51:33;25.50;;;15.00;;
60919;SDS011;59039;52.108;19.942;2023-09-30T02:53:58;31.50;;;16.70;;
60919;SDS011;59039;52.108;19.942;2023-09-30T02:56:24;28.80;;;15.50;;
60919;SDS011;59039;52.108;19.942;2023-09-30T02:58:49;30.80;;;16.80;;
60919;SDS011;59039;52.108;19.942;2023-09-30T03:01:14;26.90;;;16.40;;
60919;SDS011;59039;52.108;19.942;2023-09-30T03:03:40;27.90;;;16.10;;
60919;SDS011;59039;52.108;19.942;2023-09-30T03:06:05;27.50;;;16.10;;
60919;SDS011;59039;52.108;19.942;2023-09-30T03:08:30;32.20;;;16.10;;
60919;SDS011;59039;52.108;19.942;2023-09-30T03:10:55;25.90;;;15.50;;
60919;SDS011;59039;52.108;19.942;2023-09-30T03:13:21;29.20;;;15.40;;
60919;SDS011;59039;52.108;19.942;2023-09-30T03:15:46;29.10;;;17.40;;
60919;SDS011;59039;52.108;19.942;2023-09-30T03:18:11;25.70;;;15.20;;
60919;SDS011;59039;52.108;19.942;2023-09-30T03:20:36;31.20;;;16.00;;
60919;SDS011;59039;52.108;19.942;2023-09-30T03:23:02;29.80;;;16.30;;
60919;SDS011;59039;52.108;19.942;2023-09-30T03:25:27;28.30;;;15.90;;
60919;SDS011;59039;52.108;19.942;2023-09-30T03:27:52;29.40;;;15.60;;
60919;SDS011;59039;52.108;19.942;2023-09-30T03:30:18;29.00;;;16.00;;
60919;SDS011;59039;52.108;19.942;2023-09-30T03:32:43;29.90;;;15.90;;
60919;SDS011;59039;52.108;19.942;2023-09-30T03:35:09;27.20;;;15.80;;
60919;SDS011;59039;52.108;19.942;2023-09-30T03:37:35;27.80;;;16.00;;
60919;SDS011;59039;52.108;19.942;2023-09-30T03:40:00;27.80;;;16.20;;
60919;SDS011;59039;52.108;19.942;2023-09-30T03:42:25;30.80;;;16.40;;
60919;SDS011;59039;52.108;19.942;2023-09-30T03:44:50;27.90;;;16.90;;
60919;SDS011;59039;52.108;19.942;2023-09-30T03:47:16;28.80;;;15.90;;
60919;SDS011;59039;52.108;19.942;2023-09-30T03:49:41;30.60;;;16.60;;
60919;SDS011;59039;52.108;19.942;2023-09-30T03:52:07;32.30;;;18.00;;
60919;SDS011;59039;52.108;19.942;2023-09-30T03:54:32;28.00;;;15.80;;
60919;SDS011;59039;52.108;19.942;2023-09-30T03:56:57;29.50;;;16.50;;
60919;SDS011;59039;52.108;19.942;2023-09-30T03:59:23;27.20;;;16.20;;
60919;SDS011;59039;52.108;19.942;2023-09-30T04:01:48;29.20;;;16.90;;
60919;SDS011;59039;52.108;19.942;2023-09-30T04:04:13;32.00;;;16.80;;
60919;SDS011;59039;52.108;19.942;2023-09-30T04:06:38;29.50;;;16.70;;
60919;SDS011;59039;52.108;19.942;2023-09-30T04:09:06;26.70;;;15.90;;
60919;SDS011;59039;52.108;19.942;2023-09-30T04:11:31;32.20;;;16.30;;
60919;SDS011;59039;52.108;19.942;2023-09-30T04:13:57;27.00;;;15.80;;
60919;SDS011;59039;52.108;19.942;2023-09-30T04:16:22;27.00;;;16.30;;
60919;SDS011;59039;52.108;19.942;2023-09-30T04:18:47;27.60;;;15.70;;
60919;SDS011;59039;52.108;19.942;2023-09-30T04:21:12;32.40;;;19.20;;
60919;SDS011;59039;52.108;19.942;2023-09-30T04:23:37;28.60;;;17.10;;
60919;SDS011;59039;52.108;19.942;2023-09-30T04:26:03;35.70;;;20.00;;
60919;SDS011;59039;52.108;19.942;2023-09-30T04:28:28;30.90;;;19.00;;
60919;SDS011;59039;52.108;19.942;2023-09-30T04:30:53;30.70;;;16.80;;
60919;SDS011;59039;52.108;19.942;2023-09-30T04:33:18;27.40;;;14.80;;
60919;SDS011;59039;52.108;19.942;2023-09-30T04:35:43;27.00;;;15.30;;
60919;SDS011;59039;52.108;19.942;2023-09-30T04:38:09;26.10;;;14.70;;
60919;SDS011;59039;52.108;19.942;2023-09-30T04:40:34;23.20;;;14.10;;
60919;SDS011;59039;52.108;19.942;2023-09-30T04:42:59;26.30;;;14.40;;
60919;SDS011;59039;52.108;19.942;2023-09-30T04:45:25;22.40;;;14.20;;
60919;SDS011;59039;52.108;19.942;2023-09-30T04:47:50;25.80;;;15.10;;
60919;SDS011;59039;52.108;19.942;2023-09-30T04:50:16;23.40;;;13.60;;
60919;SDS011;59039;52.108;19.942;2023-09-30T04:52:41;27.90;;;15.40;;
60919;SDS011;59039;52.108;19.942;2023-09-30T04:55:07;26.00;;;15.40;;
60919;SDS011;59039;52.108;19.942;2023-09-30T04:57:33;28.00;;;16.10;;
60919;SDS011;59039;52.108;19.942;2023-09-30T04:59:58;26.50;;;15.70;;
60919;SDS011;59039;52.108;19.942;2023-09-30T05:02:24;28.30;;;16.10;;
60919;SDS011;59039;52.108;19.942;2023-09-30T05:04:50;28.30;;;17.50;;
60919;SDS011;59039;52.108;19.942;2023-09-30T05:07:15;25.80;;;15.50;;
60919;SDS011;59039;52.108;19.942;2023-09-30T05:09:41;39.30;;;18.30;;
60919;SDS011;59039;52.108;19.942;2023-09-30T05:12:06;28.00;;;17.10;;
60919;SDS011;59039;52.108;19.942;2023-09-30T05:14:31;28.80;;;17.00;;
60919;SDS011;59039;52.108;19.942;2023-09-30T05:16:56;34.70;;;17.10;;
60919;SDS011;59039;52.108;19.942;2023-09-30T05:19:22;32.80;;;17.20;;
60919;SDS011;59039;52.108;19.942;2023-09-30T05:21:47;31.90;;;18.20;;
60919;SDS011;59039;52.108;19.942;2023-09-30T05:24:13;31.30;;;18.20;;
60919;SDS011;59039;52.108;19.942;2023-09-30T05:26:38;37.80;;;18.80;;
60919;SDS011;59039;52.108;19.942;2023-09-30T05:29:03;37.20;;;18.30;;
60919;SDS011;59039;52.108;19.942;2023-09-30T05:31:28;40.20;;;20.10;;
60919;SDS011;59039;52.108;19.942;2023-09-30T05:33:54;37.10;;;19.20;;
60919;SDS011;59039;52.108;19.942;2023-09-30T05:36:19;32.10;;;19.50;;
60919;SDS011;59039;52.108;19.942;2023-09-30T05:38:44;47.10;;;20.40;;
60919;SDS011;59039;52.108;19.942;2023-09-30T05:41:09;36.20;;;21.30;;
60919;SDS011;59039;52.108;19.942;2023-09-30T05:43:34;35.60;;;20.10;;
60919;SDS011;59039;52.108;19.942;2023-09-30T05:46:00;34.30;;;20.30;;
60919;SDS011;59039;52.108;19.942;2023-09-30T05:48:25;32.90;;;19.60;;
60919;SDS011;59039;52.108;19.942;2023-09-30T05:50:50;34.70;;;19.20;;
60919;SDS011;59039;52.108;19.942;2023-09-30T05:53:15;36.40;;;19.60;;
60919;SDS011;59039;52.108;19.942;2023-09-30T05:55:41;33.70;;;20.50;;
60919;SDS011;59039;52.108;19.942;2023-09-30T05:58:06;37.70;;;21.40;;
60919;SDS011;59039;52.108;19.942;2023-09-30T06:00:31;34.20;;;22.20;;
60919;SDS011;59039;52.108;19.942;2023-09-30T06:02:57;38.00;;;22.30;;
60919;SDS011;59039;52.108;19.942;2023-09-30T06:05:22;35.60;;;21.10;;
60919;SDS011;59039;52.108;19.942;2023-09-30T06:07:48;42.40;;;22.10;;
60919;SDS011;59039;52.108;19.942;2023-09-30T06:10:14;42.10;;;21.40;;
60919;SDS011;59039;52.108;19.942;2023-09-30T06:12:39;34.00;;;21.80;;
60919;SDS011;59039;52.108;19.942;2023-09-30T06:15:05;35.00;;;21.80;;
60919;SDS011;59039;52.108;19.942;2023-09-30T06:17:31;35.10;;;21.60;;
60919;SDS011;59039;52.108;19.942;2023-09-30T06:19:56;35.50;;;22.00;;
60919;SDS011;59039;52.108;19.942;2023-09-30T06:22:22;34.50;;;21.20;;
60919;SDS011;59039;52.108;19.942;2023-09-30T06:24:47;37.40;;;22.90;;
60919;SDS011;59039;52.108;19.942;2023-09-30T06:27:12;38.10;;;22.10;;
60919;SDS011;59039;52.108;19.942;2023-09-30T06:29:37;38.30;;;22.90;;
60919;SDS011;59039;52.108;19.942;2023-09-30T06:32:02;38.90;;;22.80;;
60919;SDS011;59039;52.108;19.942;2023-09-30T06:34:28;39.20;;;22.50;;
60919;SDS011;59039;52.108;19.942;2023-09-30T06:36:53;40.50;;;22.60;;
60919;SDS011;59039;52.108;19.942;2023-09-30T06:39:18;38.20;;;22.60;;
60919;SDS011;59039;52.108;19.942;2023-09-30T06:41:43;35.80;;;21.80;;
60919;SDS011;59039;52.108;19.942;2023-09-30T06:44:09;36.20;;;22.10;;
60919;SDS011;59039;52.108;19.942;2023-09-30T06:46:34;42.10;;;22.10;;
60919;SDS011;59039;52.108;19.942;2023-09-30T06:48:59;38.20;;;22.80;;
60919;SDS011;59039;52.108;19.942;2023-09-30T06:51:24;38.90;;;23.80;;
60919;SDS011;59039;52.108;19.942;2023-09-30T06:53:49;40.20;;;22.50;;
60919;SDS011;59039;52.108;19.942;2023-09-30T06:56:15;38.10;;;20.30;;
60919;SDS011;59039;52.108;19.942;2023-09-30T06:58:40;38.30;;;22.90;;
60919;SDS011;59039;52.108;19.942;2023-09-30T07:01:05;39.80;;;22.00;;
60919;SDS011;59039;52.108;19.942;2023-09-30T07:03:30;41.90;;;23.60;;
60919;SDS011;59039;52.108;19.942;2023-09-30T07:05:55;36.80;;;22.70;;
60919;SDS011;59039;52.108;19.942;2023-09-30T07:08:21;41.10;;;22.50;;
60919;SDS011;59039;52.108;19.942;2023-09-30T07:10:46;36.80;;;22.80;;
60919;SDS011;59039;52.108;19.942;2023-09-30T07:13:12;37.60;;;21.50;;
60919;SDS011;59039;52.108;19.942;2023-09-30T07:15:37;43.30;;;23.10;;
60919;SDS011;59039;52.108;19.942;2023-09-30T07:18:03;41.50;;;23.30;;
60919;SDS011;59039;52.108;19.942;2023-09-30T07:20:28;40.30;;;22.60;;
60919;SDS011;59039;52.108;19.942;2023-09-30T07:22:53;37.90;;;22.30;;
60919;SDS011;59039;52.108;19.942;2023-09-30T07:25:18;46.50;;;22.70;;
60919;SDS011;59039;52.108;19.942;2023-09-30T07:27:44;43.70;;;24.20;;
60919;SDS011;59039;52.108;19.942;2023-09-30T07:30:10;42.00;;;23.60;;
60919;SDS011;59039;52.108;19.942;2023-09-30T07:32:36;43.20;;;24.50;;
60919;SDS011;59039;52.108;19.942;2023-09-30T07:35:01;40.50;;;23.10;;
60919;SDS011;59039;52.108;19.942;2023-09-30T07:37:26;48.60;;;24.10;;
60919;SDS011;59039;52.108;19.942;2023-09-30T07:39:51;43.20;;;23.90;;
60919;SDS011;59039;52.108;19.942;2023-09-30T07:42:16;37.80;;;22.30;;
60919;SDS011;59039;52.108;19.942;2023-09-30T07:44:42;38.70;;;23.60;;
60919;SDS011;59039;52.108;19.942;2023-09-30T07:47:07;41.20;;;24.70;;
60919;SDS011;59039;52.108;19.942;2023-09-30T07:49:32;44.60;;;24.30;;
60919;SDS011;59039;52.108;19.942;2023-09-30T07:51:58;39.70;;;24.30;;
60919;SDS011;59039;52.108;19.942;2023-09-30T07:54:23;38.50;;;22.40;;
60919;SDS011;59039;52.108;19.942;2023-09-30T07:56:49;41.40;;;24.20;;
60919;SDS011;59039;52.108;19.942;2023-09-30T07:59:14;40.20;;;23.40;;
60919;SDS011;59039;52.108;19.942;2023-09-30T08:01:39;45.10;;;24.00;;
60919;SDS011;59039;52.108;19.942;2023-09-30T08:04:04;40.60;;;23.30;;
60919;SDS011;59039;52.108;19.942;2023-09-30T08:06:30;40.10;;;23.20;;
60919;SDS011;59039;52.108;19.942;2023-09-30T08:08:55;40.00;;;22.70;;
60919;SDS011;59039;52.108;19.942;2023-09-30T08:11:20;40.30;;;23.70;;
60919;SDS011;59039;52.108;19.942;2023-09-30T08:13:46;44.50;;;25.20;;
60919;SDS011;59039;52.108;19.942;2023-09-30T08:16:11;43.20;;;24.50;;
60919;SDS011;59039;52.108;19.942;2023-09-30T08:18:36;42.00;;;22.10;;
60919;SDS011;59039;52.108;19.942;2023-09-30T08:21:01;35.10;;;19.80;;
60919;SDS011;59039;52.108;19.942;2023-09-30T08:23:27;37.10;;;17.70;;
60919;SDS011;59039;52.108;19.942;2023-09-30T08:25:52;25.80;;;15.50;;
60919;SDS011;59039;52.108;19.942;2023-09-30T08:28:17;31.40;;;14.40;;
60919;SDS011;59039;52.108;19.942;2023-09-30T08:30:42;24.90;;;14.80;;
60919;SDS011;59039;52.108;19.942;2023-09-30T08:33:07;32.80;;;15.70;;
60919;SDS011;59039;52.108;19.942;2023-09-30T08:35:36;33.60;;;14.90;;
60919;SDS011;59039;52.108;19.942;2023-09-30T08:38:02;27.90;;;14.60;;
60919;SDS011;59039;52.108;19.942;2023-09-30T08:40:27;25.30;;;12.20;;
60919;SDS011;59039;52.108;19.942;2023-09-30T08:42:53;24.50;;;12.40;;
60919;SDS011;59039;52.108;19.942;2023-09-30T08:45:18;26.50;;;11.50;;
60919;SDS011;59039;52.108;19.942;2023-09-30T08:47:44;25.40;;;10.80;;
60919;SDS011;59039;52.108;19.942;2023-09-30T08:50:10;18.90;;;11.10;;
60919;SDS011;59039;52.108;19.942;2023-09-30T08:52:37;20.40;;;9.90;;
60919;SDS011;59039;52.108;19.942;2023-09-30T08:55:03;18.80;;;8.80;;
60919;SDS011;59039;52.108;19.942;2023-09-30T08:57:30;16.10;;;8.40;;
60919;SDS011;59039;52.108;19.942;2023-09-30T08:59:55;20.10;;;8.10;;
60919;SDS011;59039;52.108;19.942;2023-09-30T09:02:21;19.70;;;8.20;;
60919;SDS011;59039;52.108;19.942;2023-09-30T09:04:46;14.60;;;7.50;;
60919;SDS011;59039;52.108;19.942;2023-09-30T09:07:11;15.20;;;6.00;;
60919;SDS011;59039;52.108;19.942;2023-09-30T09:09:37;15.30;;;6.30;;
60919;SDS011;59039;52.108;19.942;2023-09-30T09:12:02;13.10;;;4.60;;
60919;SDS011;59039;52.108;19.942;2023-09-30T09:14:37;9.30;;;4.20;;
60919;SDS011;59039;52.108;19.942;2023-09-30T09:17:03;11.10;;;4.80;;
60919;SDS011;59039;52.108;19.942;2023-09-30T09:19:28;10.40;;;4.10;;
60919;SDS011;59039;52.108;19.942;2023-09-30T09:21:57;11.90;;;4.80;;
60919;SDS011;59039;52.108;19.942;2023-09-30T09:24:27;8.10;;;3.90;;
60919;SDS011;59039;52.108;19.942;2023-09-30T09:27:06;11.70;;;4.10;;
60919;SDS011;59039;52.108;19.942;2023-09-30T09:29:36;9.40;;;3.80;;
60919;SDS011;59039;52.108;19.942;2023-09-30T09:32:06;9.10;;;4.20;;
60919;SDS011;59039;52.108;19.942;2023-09-30T09:34:32;8.50;;;3.70;;
60919;SDS011;59039;52.108;19.942;2023-09-30T09:36:57;10.80;;;4.30;;
60919;SDS011;59039;52.108;19.942;2023-09-30T09:39:29;10.70;;;4.00;;
60919;SDS011;59039;52.108;19.942;2023-09-30T09:41:55;10.00;;;3.90;;
60919;SDS011;59039;52.108;19.942;2023-09-30T09:44:20;10.40;;;4.10;;
60919;SDS011;59039;52.108;19.942;2023-09-30T09:46:47;10.80;;;4.00;;
60919;SDS011;59039;52.108;19.942;2023-09-30T09:49:14;11.80;;;3.90;;
60919;SDS011;59039;52.108;19.942;2023-09-30T09:51:42;14.30;;;4.30;;
60919;SDS011;59039;52.108;19.942;2023-09-30T09:54:11;14.20;;;4.70;;
60919;SDS011;59039;52.108;19.942;2023-09-30T09:56:36;10.50;;;3.10;;
60919;SDS011;59039;52.108;19.942;2023-09-30T09:59:03;9.30;;;3.00;;
60919;SDS011;59039;52.108;19.942;2023-09-30T10:01:30;13.60;;;4.60;;
60919;SDS011;59039;52.108;19.942;2023-09-30T10:03:57;11.90;;;4.30;;
60919;SDS011;59039;52.108;19.942;2023-09-30T10:06:23;10.50;;;3.70;;
60919;SDS011;59039;52.108;19.942;2023-09-30T10:08:49;13.40;;;3.90;;
60919;SDS011;59039;52.108;19.942;2023-09-30T10:11:16;12.60;;;3.90;;
60919;SDS011;59039;52.108;19.942;2023-09-30T10:13:58;10.80;;;3.70;;
60919;SDS011;59039;52.108;19.942;2023-09-30T10:19:10;11.70;;;4.50;;
60919;SDS011;59039;52.108;19.942;2023-09-30T10:21:36;16.90;;;5.60;;
60919;SDS011;59039;52.108;19.942;2023-09-30T10:29:57;12.30;;;4.10;;
60919;SDS011;59039;52.108;19.942;2023-09-30T10:33:07;13.00;;;4.70;;
60919;SDS011;59039;52.108;19.942;2023-09-30T10:35:15;13.90;;;5.00;;
60919;SDS011;59039;52.108;19.942;2023-09-30T10:37:44;15.50;;;5.70;;
60919;SDS011;59039;52.108;19.942;2023-09-30T10:40:10;13.50;;;4.20;;
60919;SDS011;59039;52.108;19.942;2023-09-30T10:42:54;10.70;;;4.10;;
60919;SDS011;59039;52.108;19.942;2023-09-30T10:45:41;13.70;;;4.20;;
60919;SDS011;59039;52.108;19.942;2023-09-30T10:53:17;15.40;;;4.40;;
60919;SDS011;59039;52.108;19.942;2023-09-30T10:55:43;15.80;;;5.10;;
60919;SDS011;59039;52.108;19.942;2023-09-30T10:58:10;13.00;;;5.00;;
60919;SDS011;59039;52.108;19.942;2023-09-30T11:00:35;15.80;;;4.50;;
60919;SDS011;59039;52.108;19.942;2023-09-30T11:03:00;15.40;;;4.30;;
60919;SDS011;59039;52.108;19.942;2023-09-30T11:05:26;12.90;;;4.40;;
60919;SDS011;59039;52.108;19.942;2023-09-30T11:07:51;20.40;;;5.40;;
60919;SDS011;59039;52.108;19.942;2023-09-30T11:10:18;14.70;;;5.10;;
60919;SDS011;59039;52.108;19.942;2023-09-30T11:12:56;15.60;;;5.20;;
60919;SDS011;59039;52.108;19.942;2023-09-30T11:15:22;15.60;;;4.40;;
60919;SDS011;59039;52.108;19.942;2023-09-30T11:17:47;14.20;;;4.50;;
60919;SDS011;59039;52.108;19.942;2023-09-30T11:20:12;12.90;;;4.60;;
60919;SDS011;59039;52.108;19.942;2023-09-30T11:22:38;18.20;;;4.70;;
60919;SDS011;59039;52.108;19.942;2023-09-30T11:25:03;13.50;;;4.60;;
60919;SDS011;59039;52.108;19.942;2023-09-30T11:27:28;11.80;;;4.80;;
60919;SDS011;59039;52.108;19.942;2023-09-30T11:29:54;12.60;;;4.70;;
60919;SDS011;59039;52.108;19.942;2023-09-30T11:32:23;13.30;;;4.60;;
60919;SDS011;59039;52.108;19.942;2023-09-30T11:34:49;9.70;;;3.80;;
60919;SDS011;59039;52.108;19.942;2023-09-30T11:37:14;15.20;;;4.40;;
60919;SDS011;59039;52.108;19.942;2023-09-30T11:39:40;14.70;;;4.10;;
60919;SDS011;59039;52.108;19.942;2023-09-30T11:42:15;13.20;;;3.50;;
60919;SDS011;59039;52.108;19.942;2023-09-30T11:44:45;12.90;;;3.50;;
60919;SDS011;59039;52.108;19.942;2023-09-30T11:47:13;18.90;;;4.00;;
60919;SDS011;59039;52.108;19.942;2023-09-30T11:49:39;16.70;;;4.00;;
60919;SDS011;59039;52.108;19.942;2023-09-30T11:52:08;13.50;;;3.80;;
60919;SDS011;59039;52.108;19.942;2023-09-30T11:54:35;10.20;;;4.30;;
60919;SDS011;59039;52.108;19.942;2023-09-30T11:57:02;14.10;;;3.40;;
60919;SDS011;59039;52.108;19.942;2023-09-30T11:59:27;10.10;;;3.30;;
60919;SDS011;59039;52.108;19.942;2023-09-30T12:01:52;13.50;;;3.20;;
60919;SDS011;59039;52.108;19.942;2023-09-30T12:04:17;20.50;;;4.00;;
60919;SDS011;59039;52.108;19.942;2023-09-30T12:06:43;15.90;;;3.60;;
60919;SDS011;59039;52.108;19.942;2023-09-30T12:09:08;16.80;;;3.40;;
60919;SDS011;59039;52.108;19.942;2023-09-30T12:11:33;12.70;;;3.00;;
60919;SDS011;59039;52.108;19.942;2023-09-30T12:13:58;10.10;;;3.10;;
60919;SDS011;59039;52.108;19.942;2023-09-30T12:16:24;13.40;;;3.60;;
60919;SDS011;59039;52.108;19.942;2023-09-30T12:18:49;13.10;;;3.70;;
60919;SDS011;59039;52.108;19.942;2023-09-30T12:21:14;13.50;;;3.70;;
60919;SDS011;59039;52.108;19.942;2023-09-30T12:23:39;9.90;;;3.20;;
60919;SDS011;59039;52.108;19.942;2023-09-30T12:26:05;12.60;;;3.40;;
60919;SDS011;59039;52.108;19.942;2023-09-30T12:28:34;14.40;;;3.50;;
60919;SDS011;59039;52.108;19.942;2023-09-30T12:31:00;14.60;;;3.90;;
60919;SDS011;59039;52.108;19.942;2023-09-30T12:33:26;18.80;;;3.80;;
60919;SDS011;59039;52.108;19.942;2023-09-30T12:35:51;14.70;;;4.10;;
60919;SDS011;59039;52.108;19.942;2023-09-30T12:38:16;14.30;;;4.20;;
60919;SDS011;59039;52.108;19.942;2023-09-30T12:40:41;18.60;;;4.60;;
60919;SDS011;59039;52.108;19.942;2023-09-30T12:43:06;14.40;;;4.20;;
60919;SDS011;59039;52.108;19.942;2023-09-30T12:45:32;18.00;;;4.60;;
60919;SDS011;59039;52.108;19.942;2023-09-30T12:47:57;13.90;;;4.60;;
60919;SDS011;59039;52.108;19.942;2023-09-30T12:50:22;16.70;;;4.10;;
60919;SDS011;59039;52.108;19.942;2023-09-30T12:52:47;20.70;;;4.90;;
60919;SDS011;59039;52.108;19.942;2023-09-30T12:55:16;18.80;;;3.70;;
60919;SDS011;59039;52.108;19.942;2023-09-30T12:57:41;16.00;;;4.40;;
60919;SDS011;59039;52.108;19.942;2023-09-30T13:00:06;20.90;;;5.20;;
60919;SDS011;59039;52.108;19.942;2023-09-30T13:02:32;16.30;;;4.10;;
60919;SDS011;59039;52.108;19.942;2023-09-30T13:04:57;19.00;;;4.20;;
60919;SDS011;59039;52.108;19.942;2023-09-30T13:07:22;23.00;;;4.60;;
60919;SDS011;59039;52.108;19.942;2023-09-30T13:09:48;18.20;;;4.10;;
60919;SDS011;59039;52.108;19.942;2023-09-30T13:12:13;16.80;;;4.70;;
60919;SDS011;59039;52.108;19.942;2023-09-30T13:14:38;21.80;;;4.60;;
60919;SDS011;59039;52.108;19.942;2023-09-30T13:17:03;16.00;;;4.70;;
60919;SDS011;59039;52.108;19.942;2023-09-30T13:19:28;20.80;;;5.20;;
60919;SDS011;59039;52.108;19.942;2023-09-30T13:21:54;17.00;;;4.40;;
60919;SDS011;59039;52.108;19.942;2023-09-30T13:24:19;14.40;;;4.40;;
60919;SDS011;59039;52.108;19.942;2023-09-30T13:26:44;18.50;;;4.70;;
60919;SDS011;59039;52.108;19.942;2023-09-30T13:29:10;15.60;;;4.80;;
60919;SDS011;59039;52.108;19.942;2023-09-30T13:31:35;15.90;;;4.10;;
60919;SDS011;59039;52.108;19.942;2023-09-30T13:34:01;15.50;;;5.20;;
60919;SDS011;59039;52.108;19.942;2023-09-30T13:36:26;18.10;;;4.60;;
60919;SDS011;59039;52.108;19.942;2023-09-30T13:38:51;14.10;;;4.40;;
60919;SDS011;59039;52.108;19.942;2023-09-30T13:41:16;16.50;;;4.70;;
60919;SDS011;59039;52.108;19.942;2023-09-30T13:43:41;15.00;;;5.10;;
60919;SDS011;59039;52.108;19.942;2023-09-30T13:46:06;20.00;;;4.60;;
60919;SDS011;59039;52.108;19.942;2023-09-30T13:48:35;18.50;;;5.20;;
60919;SDS011;59039;52.108;19.942;2023-09-30T13:51:04;21.10;;;4.70;;
60919;SDS011;59039;52.108;19.942;2023-09-30T13:53:30;13.80;;;4.50;;
60919;SDS011;59039;52.108;19.942;2023-09-30T13:55:55;16.10;;;4.70;;
60919;SDS011;59039;52.108;19.942;2023-09-30T13:58:20;15.60;;;4.40;;
60919;SDS011;59039;52.108;19.942;2023-09-30T14:00:46;17.80;;;4.50;;
60919;SDS011;59039;52.108;19.942;2023-09-30T14:03:12;19.00;;;5.40;;
60919;SDS011;59039;52.108;19.942;2023-09-30T14:05:37;21.30;;;5.70;;
60919;SDS011;59039;52.108;19.942;2023-09-30T14:08:02;15.70;;;4.50;;
60919;SDS011;59039;52.108;19.942;2023-09-30T14:10:28;21.10;;;5.80;;
60919;SDS011;59039;52.108;19.942;2023-09-30T14:12:53;18.90;;;4.90;;
60919;SDS011;59039;52.108;19.942;2023-09-30T14:15:18;18.90;;;4.90;;
60919;SDS011;59039;52.108;19.942;2023-09-30T14:17:43;21.10;;;5.70;;
60919;SDS011;59039;52.108;19.942;2023-09-30T14:20:09;16.20;;;4.90;;